createdAt,value
2022-10-06T00:02:23.198Z,101096.31
2022-10-06T00:04:49.859Z,101094.34
2022-10-06T00:07:16.767Z,101099.47
2022-10-06T00:09:43.212Z,101098.84
2022-10-06T00:12:10.179Z,101110.22
2022-10-06T00:14:36.988Z,101125.09
2022-10-06T00:17:03.859Z,101123.38
2022-10-06T00:19:31.821Z,101137.47
2022-10-06T00:21:58.348Z,101130.47
2022-10-06T00:24:24.894Z,101135.66
2022-10-06T00:26:51.388Z,101137.44
2022-10-06T00:29:18.856Z,101141.63
2022-10-06T00:31:45.595Z,101144.25
2022-10-06T00:34:12.150Z,101153.19
2022-10-06T00:36:38.634Z,101168.09
2022-10-06T00:39:05.206Z,101149.72
2022-10-06T00:41:31.702Z,101156.84
2022-10-06T00:43:58.838Z,101171.66
2022-10-06T00:46:30.569Z,101168.13
2022-10-06T00:49:05.242Z,101165.50
2022-10-06T00:51:32.518Z,101170.72
2022-10-06T00:53:59.230Z,101184.00
2022-10-06T00:56:26.122Z,101181.44
2022-10-06T00:58:52.882Z,101185.75
2022-10-06T01:01:19.577Z,101192.78
2022-10-06T01:03:50.582Z,101184.88
2022-10-06T01:06:17.201Z,101189.28
2022-10-06T01:08:43.721Z,101172.50
2022-10-06T01:11:14.367Z,101196.31
2022-10-06T01:13:43.416Z,101195.44
2022-10-06T01:16:28.166Z,101177.00
2022-10-06T01:18:55.643Z,101181.44
2022-10-06T01:21:35.082Z,101202.47
2022-10-06T01:24:02.584Z,101200.66
2022-10-06T01:26:30.622Z,101207.75
2022-10-06T01:28:57.240Z,101209.50
2022-10-06T01:31:24.139Z,101216.47
2022-10-06T01:33:54.304Z,101219.13
2022-10-06T01:36:21.334Z,101232.22
2022-10-06T01:38:47.791Z,101240.13
2022-10-06T01:41:14.321Z,101259.31
2022-10-06T01:43:41.308Z,101255.88
2022-10-06T01:46:07.853Z,101260.28
2022-10-06T01:48:35.868Z,101268.16
2022-10-06T01:51:02.350Z,101270.81
2022-10-06T01:53:29.677Z,101286.56
2022-10-06T01:56:00.231Z,101285.69
2022-10-06T01:58:27.175Z,101283.00
2022-10-06T02:00:54.227Z,101290.06
2022-10-06T02:03:20.739Z,101283.03
2022-10-06T02:05:47.210Z,101296.19
2022-10-06T02:08:13.629Z,101309.34
2022-10-06T02:10:40.155Z,101309.31
2022-10-06T02:13:06.590Z,101316.97
2022-10-06T02:15:33.465Z,101320.69
2022-10-06T02:18:00.151Z,101321.50
2022-10-06T02:20:26.994Z,101317.19
2022-10-06T02:22:53.448Z,101319.63
2022-10-06T02:25:20.002Z,101325.97
2022-10-06T02:27:46.475Z,101332.84
2022-10-06T02:30:14.519Z,101341.50
2022-10-06T02:32:42.756Z,101343.28
2022-10-06T02:35:11.356Z,101351.06
2022-10-06T02:37:37.810Z,101345.19
2022-10-06T02:40:04.776Z,101343.16
2022-10-06T02:42:31.397Z,101340.69
2022-10-06T02:44:58.947Z,101359.75
2022-10-06T02:47:25.495Z,101380.03
2022-10-06T02:49:51.933Z,101361.56
2022-10-06T02:52:18.407Z,101363.47
2022-10-06T02:54:46.941Z,101379.84
2022-10-06T02:57:15.399Z,101365.03
2022-10-06T02:59:42.976Z,101385.19
2022-10-06T03:02:09.552Z,101372.78
2022-10-06T03:04:36.120Z,101383.41
2022-10-06T03:07:02.592Z,101387.13
2022-10-06T03:09:29.018Z,101393.00
2022-10-06T03:11:55.493Z,101396.69
2022-10-06T03:14:22.493Z,101397.50
2022-10-06T03:16:50.326Z,101384.19
2022-10-06T03:19:16.856Z,101411.19
2022-10-06T03:21:44.073Z,101401.66
2022-10-06T03:24:11.098Z,101411.38
2022-10-06T03:26:40.447Z,101424.72
2022-10-06T03:29:11.319Z,101422.84
2022-10-06T03:31:39.535Z,101436.69
2022-10-06T03:34:06.445Z,101438.34
2022-10-06T03:36:34.215Z,101446.31
2022-10-06T03:39:03.185Z,101443.22
2022-10-06T03:41:31.697Z,101445.34
2022-10-06T03:43:59.329Z,101442.88
2022-10-06T03:46:27.910Z,101451.53
2022-10-06T03:48:55.215Z,101461.00
2022-10-06T03:51:27.273Z,101470.75
2022-10-06T03:53:54.184Z,101469.00
2022-10-06T03:56:23.497Z,101480.38
2022-10-06T03:59:15.929Z,101479.13
2022-10-06T04:01:44.575Z,101479.34
2022-10-06T04:04:11.974Z,101487.31
2022-10-06T04:06:41.528Z,101489.03
2022-10-06T04:09:14.929Z,101499.75
2022-10-06T04:11:43.370Z,101498.19
2022-10-06T04:14:11.790Z,101499.56
2022-10-06T04:16:40.739Z,101500.13
2022-10-06T04:19:09.978Z,101510.72
2022-10-06T04:21:38.082Z,101520.38
2022-10-06T04:24:05.777Z,101516.31
2022-10-06T04:26:35.323Z,101522.19
2022-10-06T04:29:01.894Z,101522.06
2022-10-06T04:31:32.886Z,101527.69
2022-10-06T04:34:00.858Z,101528.34
2022-10-06T04:36:29.687Z,101532.78
2022-10-06T04:38:58.278Z,101529.25
2022-10-06T04:41:29.661Z,101548.78
2022-10-06T04:43:56.171Z,101546.13
2022-10-06T04:46:42.013Z,101560.69
2022-10-06T04:49:10.187Z,101566.88
2022-10-06T04:51:38.861Z,101570.13
2022-10-06T04:54:05.324Z,101563.97
2022-10-06T04:56:32.431Z,101583.44
2022-10-06T04:58:59.330Z,101579.16
2022-10-06T05:01:31.645Z,101590.63
2022-10-06T05:03:59.584Z,101598.94
2022-10-06T05:06:31.565Z,101605.31
2022-10-06T05:09:00.169Z,101621.31
2022-10-06T05:11:27.089Z,101618.16
2022-10-06T05:13:55.590Z,101622.19
2022-10-06T05:16:23.418Z,101626.78
2022-10-06T05:18:50.868Z,101625.78
2022-10-06T05:21:20.262Z,101640.66
2022-10-06T05:23:47.022Z,101651.47
2022-10-06T05:26:16.338Z,101646.06
2022-10-06T05:28:43.246Z,101646.28
2022-10-06T05:31:15.823Z,101654.81
2022-10-06T05:33:42.708Z,101659.44
2022-10-06T05:36:15.044Z,101667.69
2022-10-06T05:38:41.738Z,101669.28
2022-10-06T05:41:13.760Z,101674.19
2022-10-06T05:43:40.774Z,101677.63
2022-10-06T05:46:12.599Z,101676.94
2022-10-06T05:48:39.141Z,101678.47
2022-10-06T05:51:07.370Z,101692.91
2022-10-06T05:53:35.622Z,101695.56
2022-10-06T05:56:13.265Z,101701.13
2022-10-06T05:58:41.951Z,101709.41
2022-10-06T06:01:11.459Z,101713.88
2022-10-06T06:03:39.144Z,101708.81
2022-10-06T06:06:15.589Z,101715.03
2022-10-06T06:08:42.491Z,101721.75
2022-10-06T06:11:09.223Z,101733.19
2022-10-06T06:13:36.127Z,101733.91
2022-10-06T06:16:06.077Z,101740.28
2022-10-06T06:18:37.320Z,101745.53
2022-10-06T06:21:06.476Z,101760.69
2022-10-06T06:23:38.995Z,101764.03
2022-10-06T06:26:07.677Z,101766.84
2022-10-06T06:28:35.620Z,101773.34
2022-10-06T06:31:19.747Z,101778.84
2022-10-06T06:33:47.639Z,101791.41
2022-10-06T06:36:20.371Z,101795.66
2022-10-06T06:38:51.980Z,101796.47
2022-10-06T06:41:27.464Z,101806.88
2022-10-06T06:43:54.677Z,101806.66
2022-10-06T06:46:24.983Z,101814.53
2022-10-06T06:48:52.953Z,101816.97
2022-10-06T06:51:23.041Z,101813.59
2022-10-06T06:53:53.292Z,101819.75
2022-10-06T06:56:23.643Z,101826.78
2022-10-06T06:58:50.309Z,101833.19
2022-10-06T07:01:18.883Z,101822.16
2022-10-06T07:03:58.273Z,101832.22
2022-10-06T07:06:28.788Z,101842.38
2022-10-06T07:08:56.790Z,101846.72
2022-10-06T07:11:29.347Z,101850.94
2022-10-06T07:14:01.403Z,101854.88
2022-10-06T07:16:48.580Z,101854.91
2022-10-06T07:19:34.754Z,101863.00
2022-10-06T07:22:31.643Z,101873.38
2022-10-06T07:25:12.892Z,101875.31
2022-10-06T07:27:44.996Z,101877.91
2022-10-06T07:30:30.102Z,101887.38
2022-10-06T07:32:56.583Z,101883.03
2022-10-06T07:35:24.241Z,101912.94
2022-10-06T07:37:51.413Z,101907.34
2022-10-06T07:40:18.537Z,101905.09
2022-10-06T07:42:54.003Z,101907.88
2022-10-06T07:45:39.067Z,101913.72
2022-10-06T07:48:18.088Z,101927.69
2022-10-06T07:50:50.895Z,101932.75
2022-10-06T07:53:18.183Z,101925.88
2022-10-06T07:55:46.778Z,101945.03
2022-10-06T07:58:18.443Z,101951.38
2022-10-06T08:00:46.010Z,101948.09
2022-10-06T08:03:19.418Z,101939.56
2022-10-06T08:05:58.026Z,101949.25
2022-10-06T08:08:25.064Z,101958.81
2022-10-06T08:10:56.244Z,101951.97
2022-10-06T08:13:23.451Z,101963.34
2022-10-06T08:15:51.257Z,101964.41
2022-10-06T08:18:44.470Z,101970.56
2022-10-06T08:21:11.612Z,101989.81
2022-10-06T08:23:40.486Z,101978.13
2022-10-06T08:26:06.946Z,101988.88
2022-10-06T08:28:33.559Z,102007.78
2022-10-06T08:31:04.429Z,102010.00
2022-10-06T08:33:31.268Z,102016.50
2022-10-06T08:36:09.288Z,102017.25
2022-10-06T08:38:37.257Z,102013.66
2022-10-06T08:41:26.817Z,102005.88
2022-10-06T08:44:00.918Z,102030.72
2022-10-06T08:46:34.381Z,102017.25
2022-10-06T08:49:02.414Z,102032.88
2022-10-06T08:51:47.681Z,102041.47
2022-10-06T08:54:20.026Z,102033.94
2022-10-06T08:56:57.979Z,102039.22
2022-10-06T08:59:24.985Z,102048.97
2022-10-06T09:01:54.815Z,102056.94
2022-10-06T09:04:28.305Z,102062.22
2022-10-06T09:07:06.560Z,102057.19
2022-10-06T09:10:11.917Z,102067.56
2022-10-06T09:12:46.995Z,102069.56
2022-10-06T09:15:25.693Z,102082.38
2022-10-06T09:18:56.537Z,102081.50
2022-10-06T09:21:46.291Z,102089.53
2022-10-06T09:24:15.893Z,102078.16
2022-10-06T09:26:45.051Z,102096.41
2022-10-06T09:29:12.552Z,102090.28
2022-10-06T09:31:40.305Z,102102.78
2022-10-06T09:34:20.870Z,102110.03
2022-10-06T09:37:04.918Z,102119.28
2022-10-06T09:39:36.478Z,102117.84
2022-10-06T09:42:13.546Z,102123.09
2022-10-06T09:44:50.907Z,102118.09
2022-10-06T09:47:34.616Z,102118.97
2022-10-06T09:50:12.390Z,102131.66
2022-10-06T09:52:40.540Z,102120.06
2022-10-06T09:55:13.167Z,102131.50
2022-10-06T09:57:50.417Z,102135.16
2022-10-06T10:00:30.520Z,102129.47
2022-10-06T10:03:03.110Z,102130.31
2022-10-06T10:05:31.806Z,102139.28
2022-10-06T10:08:09.096Z,102131.88
2022-10-06T10:10:36.761Z,102145.13
2022-10-06T10:13:05.481Z,102139.91
2022-10-06T10:15:35.070Z,102151.31
2022-10-06T10:18:04.276Z,102160.84
2022-10-06T10:20:37.506Z,102153.38
2022-10-06T10:23:31.125Z,102150.63
2022-10-06T10:26:27.122Z,102163.78
2022-10-06T10:29:16.551Z,102163.34
2022-10-06T10:31:50.392Z,102157.53
2022-10-06T10:34:39.740Z,102179.03
2022-10-06T10:37:12.666Z,102191.34
2022-10-06T10:39:51.284Z,102176.31
2022-10-06T10:42:28.701Z,102186.56
2022-10-06T10:45:00.518Z,102210.63
2022-10-06T10:47:35.170Z,102195.28
2022-10-06T10:50:17.626Z,102194.44
2022-10-06T10:52:47.112Z,102189.28
2022-10-06T10:55:23.258Z,102191.94
2022-10-06T10:57:51.053Z,102206.03
2022-10-06T11:00:23.101Z,102200.69
2022-10-06T11:02:52.278Z,102204.97
2022-10-06T11:05:56.057Z,102212.97
2022-10-06T11:08:33.086Z,102207.97
2022-10-06T11:11:02.476Z,102211.47
2022-10-06T11:13:49.260Z,102211.31
2022-10-06T11:16:30.452Z,102211.28
2022-10-06T11:19:18.272Z,102217.66
2022-10-06T11:21:54.733Z,102224.47
2022-10-06T11:24:48.430Z,102218.34
2022-10-06T11:27:44.708Z,102222.00
2022-10-06T11:30:30.588Z,102219.41
2022-10-06T11:33:03.091Z,102237.41
2022-10-06T11:35:35.314Z,102226.13
2022-10-06T11:38:28.540Z,102233.75
2022-10-06T11:41:19.203Z,102241.06
2022-10-06T11:44:00.356Z,102242.84
2022-10-06T11:46:41.322Z,102243.03
2022-10-06T11:49:28.997Z,102245.38
2022-10-06T11:52:08.796Z,102251.06
2022-10-06T11:54:45.199Z,102253.59
2022-10-06T11:57:29.452Z,102244.16
2022-10-06T12:00:17.450Z,102252.50
2022-10-06T12:02:45.920Z,102254.19
2022-10-06T12:05:49.381Z,102254.34
2022-10-06T12:08:02.684Z,102260.22
2022-10-06T12:10:29.130Z,102259.56
2022-10-06T12:13:21.225Z,102266.63
2022-10-06T12:19:24.416Z,102268.94
2022-10-06T12:22:01.229Z,102272.78
2022-10-06T12:24:33.114Z,102265.25
2022-10-06T12:27:02.880Z,102257.53
2022-10-06T12:29:52.525Z,102258.03
2022-10-06T12:32:21.780Z,102266.75
2022-10-06T12:35:00.809Z,102275.38
2022-10-06T12:37:36.796Z,102260.34
2022-10-06T12:40:40.650Z,102267.47
2022-10-06T12:43:19.343Z,102259.38
2022-10-06T12:46:29.351Z,102256.03
2022-10-06T12:49:26.594Z,102254.63
2022-10-06T12:51:57.716Z,102259.13
2022-10-06T12:54:38.569Z,102280.16
2022-10-06T12:57:14.263Z,102270.59
2022-10-06T12:59:40.946Z,102272.72
2022-10-06T13:02:16.432Z,102281.47
2022-10-06T13:04:45.518Z,102279.59
2022-10-06T13:07:22.422Z,102281.00
2022-10-06T13:09:51.837Z,102290.78
2022-10-06T13:12:30.429Z,102279.19
2022-10-06T13:15:23.371Z,102279.66
2022-10-06T13:17:51.665Z,102292.81
2022-10-06T13:20:41.440Z,102284.38
2022-10-06T13:23:24.425Z,102296.22
2022-10-06T13:25:57.684Z,102295.31
2022-10-06T13:28:34.385Z,102295.16
2022-10-06T13:31:21.051Z,102288.22
2022-10-06T13:33:50.971Z,102288.88
2022-10-06T13:36:17.613Z,102298.72
2022-10-06T13:38:44.178Z,102303.81
2022-10-06T13:41:13.731Z,102291.16
2022-10-06T13:43:43.555Z,102314.13
2022-10-06T13:46:12.382Z,102304.22
2022-10-06T13:48:48.169Z,102309.34
2022-10-06T13:51:17.790Z,102317.25
2022-10-06T13:53:46.729Z,102318.09
2022-10-06T13:56:26.143Z,102306.78
2022-10-06T13:58:52.644Z,102311.72
2022-10-06T14:01:32.009Z,102307.44
2022-10-06T14:04:15.030Z,102317.25
2022-10-06T14:07:01.961Z,102321.22
2022-10-06T14:09:32.854Z,102321.97
2022-10-06T14:12:07.819Z,102316.44
2022-10-06T14:14:34.354Z,102317.03
2022-10-06T14:17:00.821Z,102319.88
2022-10-06T14:19:33.750Z,102318.88
2022-10-06T14:22:00.497Z,102324.22
2022-10-06T14:24:28.458Z,102324.41
2022-10-06T14:27:00.935Z,102314.13
2022-10-06T14:29:27.451Z,102318.25
2022-10-06T14:31:53.902Z,102324.66
2022-10-06T14:34:21.919Z,102333.47
2022-10-06T14:36:51.775Z,102324.47
2022-10-06T14:39:18.594Z,102327.84
2022-10-06T14:41:45.775Z,102327.25
2022-10-06T14:44:13.180Z,102334.66
2022-10-06T14:46:41.417Z,102333.38
2022-10-06T14:49:10.033Z,102332.94
2022-10-06T14:51:37.712Z,102331.47
2022-10-06T14:54:05.149Z,102341.94
2022-10-06T14:56:33.661Z,102336.09
2022-10-06T14:59:02.946Z,102346.59
2022-10-06T15:01:30.146Z,102336.59
2022-10-06T15:03:58.968Z,102327.66
2022-10-06T15:06:44.579Z,102341.69
2022-10-06T15:09:11.360Z,102344.97
2022-10-06T15:11:38.816Z,102343.13
2022-10-06T15:14:06.378Z,102339.84
2022-10-06T15:16:33.622Z,102339.66
2022-10-06T15:19:00.676Z,102332.88
2022-10-06T15:21:27.775Z,102330.44
2022-10-06T15:23:59.396Z,102335.69
2022-10-06T15:26:45.110Z,102333.91
2022-10-06T15:29:12.149Z,102341.06
2022-10-06T15:31:41.015Z,102330.22
2022-10-06T15:34:10.752Z,102345.16
2022-10-06T15:36:39.161Z,102344.19
2022-10-06T15:39:10.662Z,102339.16
2022-10-06T15:41:38.670Z,102342.38
2022-10-06T15:44:06.217Z,102346.69
2022-10-06T15:46:40.674Z,102344.66
2022-10-06T15:49:08.159Z,102341.91
2022-10-06T15:51:46.703Z,102342.84
2022-10-06T15:54:14.249Z,102346.53
2022-10-06T15:56:42.111Z,102345.69
2022-10-06T15:59:08.605Z,102347.94
2022-10-06T16:01:39.108Z,102348.25
2022-10-06T16:04:12.685Z,102344.34
2022-10-06T16:06:43.167Z,102344.59
2022-10-06T16:09:11.202Z,102345.94
2022-10-06T16:11:37.739Z,102345.56
2022-10-06T16:14:04.250Z,102345.66
2022-10-06T16:16:30.870Z,102343.28
2022-10-06T16:18:57.409Z,102343.16
2022-10-06T16:21:23.956Z,102355.88
2022-10-06T16:23:53.927Z,102351.44
2022-10-06T16:26:20.788Z,102346.22
2022-10-06T16:28:47.309Z,102350.50
2022-10-06T16:31:13.858Z,102344.41
2022-10-06T16:33:41.075Z,102353.13
2022-10-06T16:36:07.879Z,102354.97
2022-10-06T16:38:34.324Z,102357.56
2022-10-06T16:41:02.053Z,102366.13
2022-10-06T16:43:39.240Z,102358.81
2022-10-06T16:46:08.534Z,102361.22
2022-10-06T16:48:37.237Z,102373.25
2022-10-06T16:51:09.834Z,102371.53
2022-10-06T16:53:47.417Z,102373.94
2022-10-06T16:56:20.774Z,102378.00
2022-10-06T16:58:50.184Z,102379.78
2022-10-06T17:01:17.652Z,102390.91
2022-10-06T17:03:44.579Z,102390.78
2022-10-06T17:06:13.613Z,102392.31
2022-10-06T17:08:40.221Z,102392.75
2022-10-06T17:11:11.254Z,102393.47
2022-10-06T17:13:39.542Z,102401.44
2022-10-06T17:16:09.081Z,102396.81
2022-10-06T17:18:35.872Z,102398.28
2022-10-06T17:21:20.202Z,102394.59
2022-10-06T17:24:01.158Z,102392.00
2022-10-06T17:26:33.185Z,102398.38
2022-10-06T17:29:02.046Z,102388.16
2022-10-06T17:31:35.758Z,102398.22
2022-10-06T17:37:10.418Z,102396.50
2022-10-06T17:39:36.905Z,102400.97
2022-10-06T17:42:03.546Z,102393.72
2022-10-06T17:44:31.265Z,102399.66
2022-10-06T17:47:00.356Z,102393.81
2022-10-06T17:49:28.034Z,102401.84
2022-10-06T17:51:55.425Z,102400.56
2022-10-06T17:54:23.839Z,102397.13
2022-10-06T17:56:53.198Z,102396.94
2022-10-06T17:59:31.035Z,102394.63
2022-10-06T18:01:59.854Z,102384.47
2022-10-06T18:04:27.252Z,102399.03
2022-10-06T18:06:54.139Z,102391.03
2022-10-06T18:09:21.435Z,102397.69
2022-10-06T18:11:48.702Z,102391.56
2022-10-06T18:14:17.656Z,102402.53
2022-10-06T18:16:56.736Z,102402.31
2022-10-06T18:19:31.866Z,102404.13
2022-10-06T18:22:04.851Z,102404.97
2022-10-06T18:24:32.240Z,102411.44
2022-10-06T18:27:00.333Z,102406.44
2022-10-06T18:29:32.404Z,102414.34
2022-10-06T18:32:24.058Z,102412.56
2022-10-06T18:36:12.374Z,102411.59
2022-10-06T18:37:32.890Z,102414.34
2022-10-06T18:39:59.677Z,102409.47
2022-10-06T18:42:27.151Z,102413.16
2022-10-06T18:45:12.462Z,102402.88
2022-10-06T18:47:57.789Z,102408.53
2022-10-06T18:50:24.535Z,102409.44
2022-10-06T18:52:51.010Z,102409.38
2022-10-06T18:55:17.542Z,102406.63
2022-10-06T18:57:45.341Z,102413.84
2022-10-06T19:00:12.570Z,102422.47
2022-10-06T19:02:42.015Z,102419.94
2022-10-06T19:05:10.676Z,102420.50
2022-10-06T19:07:38.118Z,102426.47
2022-10-06T19:10:04.905Z,102421.19
2022-10-06T19:12:32.424Z,102424.16
2022-10-06T19:14:59.101Z,102423.69
2022-10-06T19:17:26.122Z,102419.44
2022-10-06T19:19:55.472Z,102422.38
2022-10-06T19:22:24.745Z,102424.28
2022-10-06T19:24:52.410Z,102434.94
2022-10-06T19:27:24.633Z,102429.28
2022-10-06T19:29:54.518Z,102432.47
2022-10-06T19:32:26.158Z,102422.94
2022-10-06T19:34:53.333Z,102415.16
2022-10-06T19:37:19.860Z,102424.00
2022-10-06T19:39:48.393Z,102424.41
2022-10-06T19:42:34.976Z,102430.63
2022-10-06T19:45:01.945Z,102432.06
2022-10-06T19:47:28.859Z,102422.72
2022-10-06T19:50:00.857Z,102430.72
2022-10-06T19:52:31.231Z,102429.84
2022-10-06T19:54:58.090Z,102430.53
2022-10-06T19:57:25.205Z,102431.63
2022-10-06T19:59:51.717Z,102427.88
2022-10-06T20:02:18.417Z,102430.63
2022-10-06T20:04:45.475Z,102436.66
2022-10-06T20:07:12.795Z,102433.84
2022-10-06T20:09:39.494Z,102430.88
2022-10-06T20:12:06.292Z,102435.91
2022-10-06T20:14:33.375Z,102426.84
2022-10-06T20:16:59.888Z,102439.59
2022-10-06T20:19:26.490Z,102437.28
2022-10-06T20:21:53.603Z,102447.00
2022-10-06T20:24:23.280Z,102447.25
2022-10-06T20:26:51.004Z,102444.47
2022-10-06T20:29:22.088Z,102444.56
2022-10-06T20:31:50.753Z,102444.69
2022-10-06T20:34:21.310Z,102444.22
2022-10-06T20:36:50.688Z,102443.63
2022-10-06T20:39:40.497Z,102432.66
2022-10-06T20:42:12.189Z,102431.75
2022-10-06T20:44:42.165Z,102440.19
2022-10-06T20:47:09.122Z,102432.41
2022-10-06T20:49:36.012Z,102430.47
2022-10-06T20:52:03.286Z,102430.41
2022-10-06T20:54:36.227Z,102438.78
2022-10-06T20:57:05.291Z,102435.44
2022-10-06T20:59:33.195Z,102435.72
2022-10-06T21:02:00.323Z,102428.50
2022-10-06T21:04:27.730Z,102442.63
2022-10-06T21:06:54.480Z,102441.81
2022-10-06T21:09:21.140Z,102442.78
2022-10-06T21:11:48.256Z,102433.06
2022-10-06T21:14:15.661Z,102445.97
2022-10-06T21:16:44.283Z,102440.72
2022-10-06T21:19:14.301Z,102434.63
2022-10-06T21:21:41.880Z,102434.88
2022-10-06T21:24:09.041Z,102432.44
2022-10-06T21:26:36.228Z,102427.28
2022-10-06T21:29:03.453Z,102430.16
2022-10-06T21:31:30.089Z,102440.69
2022-10-06T21:33:56.854Z,102428.53
2022-10-06T21:36:25.408Z,102432.91
2022-10-06T21:38:57.143Z,102438.22
2022-10-06T21:41:32.212Z,102429.22
2022-10-06T21:44:13.612Z,102423.03
2022-10-06T21:46:48.282Z,102420.50
2022-10-06T21:49:17.728Z,102428.16
2022-10-06T21:51:46.342Z,102425.59
2022-10-06T21:54:14.819Z,102423.28
2022-10-06T21:56:41.728Z,102432.41
2022-10-06T21:59:08.553Z,102414.56
2022-10-06T22:01:37.242Z,102422.22
2022-10-06T22:04:04.511Z,102423.91
2022-10-06T22:06:34.002Z,102421.28
2022-10-06T22:09:01.354Z,102414.03
2022-10-06T22:11:33.629Z,102420.47
2022-10-06T22:14:02.386Z,102412.59
2022-10-06T22:16:30.958Z,102412.72
2022-10-06T22:18:57.941Z,102406.06
2022-10-06T22:21:29.248Z,102414.19
2022-10-06T22:23:59.953Z,102399.78
2022-10-06T22:26:27.803Z,102401.44
2022-10-06T22:28:57.307Z,102400.41
2022-10-06T22:31:26.288Z,102393.47
2022-10-06T22:33:58.025Z,102395.34
2022-10-06T22:36:25.992Z,102392.97
2022-10-06T22:38:53.055Z,102396.22
2022-10-06T22:41:19.806Z,102397.72
2022-10-06T22:43:46.445Z,102394.94
2022-10-06T22:46:13.455Z,102392.22
2022-10-06T22:48:41.206Z,102389.06
2022-10-06T22:51:08.141Z,102391.38
2022-10-06T22:53:38.397Z,102383.09
2022-10-06T22:56:05.024Z,102387.00
2022-10-06T22:58:31.974Z,102386.78
2022-10-06T23:00:58.554Z,102381.41
2022-10-06T23:03:25.279Z,102378.00
2022-10-06T23:05:59.567Z,102376.31
2022-10-06T23:08:30.025Z,102375.00
2022-10-06T23:11:08.109Z,102374.63
2022-10-06T23:13:35.157Z,102373.56
2022-10-06T23:16:07.363Z,102358.94
2022-10-06T23:18:35.445Z,102370.22
2022-10-06T23:21:09.276Z,102364.94
2022-10-06T23:23:36.197Z,102357.13
2022-10-06T23:26:09.121Z,102356.72
2022-10-06T23:28:36.001Z,102361.59
2022-10-06T23:31:04.955Z,102354.69
2022-10-06T23:33:32.377Z,102357.59
2022-10-06T23:36:00.454Z,102341.13
2022-10-06T23:38:27.408Z,102338.72
2022-10-06T23:40:54.382Z,102350.94
2022-10-06T23:43:21.871Z,102343.84
2022-10-06T23:45:48.633Z,102335.44
2022-10-06T23:48:15.708Z,102337.06
2022-10-06T23:50:42.541Z,102337.84
2022-10-06T23:53:09.355Z,102331.00
2022-10-06T23:55:35.917Z,102334.94
2022-10-06T23:58:02.713Z,102337.06
